sensor_id;sensor_type;location;lat;lon;timestamp;P1;durP1;ratioP1;P2;durP2;ratioP2
79361;SDS011;68830;47.566;19.012;2023-08-06T00:02:52;14.25;;;11.25;;
79361;SDS011;68830;47.566;19.012;2023-08-06T00:05:56;11.40;;;9.55;;
79361;SDS011;68830;47.566;19.012;2023-08-06T00:08:58;13.07;;;10.55;;
79361;SDS011;68830;47.566;19.012;2023-08-06T00:12:00;11.07;;;9.13;;
79361;SDS011;68830;47.566;19.012;2023-08-06T00:15:03;13.32;;;10.57;;
79361;SDS011;68830;47.566;19.012;2023-08-06T00:18:05;14.27;;;11.43;;
79361;SDS011;68830;47.566;19.012;2023-08-06T00:21:09;11.60;;;10.40;;
79361;SDS011;68830;47.566;19.012;2023-08-06T00:24:11;15.32;;;11.23;;
79361;SDS011;68830;47.566;19.012;2023-08-06T00:27:13;13.77;;;11.07;;
79361;SDS011;68830;47.566;19.012;2023-08-06T00:30:15;14.20;;;12.00;;
79361;SDS011;68830;47.566;19.012;2023-08-06T00:33:17;13.10;;;11.00;;
79361;SDS011;68830;47.566;19.012;2023-08-06T00:36:21;12.27;;;11.07;;
79361;SDS011;68830;47.566;19.012;2023-08-06T00:39:23;14.30;;;10.73;;
79361;SDS011;68830;47.566;19.012;2023-08-06T00:42:25;14.68;;;10.80;;
79361;SDS011;68830;47.566;19.012;2023-08-06T00:45:27;13.40;;;10.90;;
79361;SDS011;68830;47.566;19.012;2023-08-06T00:48:31;14.77;;;11.30;;
79361;SDS011;68830;47.566;19.012;2023-08-06T00:51:34;13.23;;;11.00;;
79361;SDS011;68830;47.566;19.012;2023-08-06T00:54:36;12.77;;;10.20;;
79361;SDS011;68830;47.566;19.012;2023-08-06T00:57:38;20.67;;;13.23;;
79361;SDS011;68830;47.566;19.012;2023-08-06T01:00:40;12.63;;;10.93;;
79361;SDS011;68830;47.566;19.012;2023-08-06T01:03:42;11.82;;;10.60;;
79361;SDS011;68830;47.566;19.012;2023-08-06T01:06:46;14.32;;;10.43;;
79361;SDS011;68830;47.566;19.012;2023-08-06T01:09:50;14.25;;;12.18;;
79361;SDS011;68830;47.566;19.012;2023-08-06T01:13:02;13.68;;;11.48;;
79361;SDS011;68830;47.566;19.012;2023-08-06T01:16:12;17.48;;;11.90;;
79361;SDS011;68830;47.566;19.012;2023-08-06T01:19:18;14.25;;;11.48;;
79361;SDS011;68830;47.566;19.012;2023-08-06T01:22:22;12.55;;;10.90;;
79361;SDS011;68830;47.566;19.012;2023-08-06T01:25:25;14.48;;;10.07;;
79361;SDS011;68830;47.566;19.012;2023-08-06T01:28:38;10.13;;;9.10;;
79361;SDS011;68830;47.566;19.012;2023-08-06T01:31:46;11.80;;;9.70;;
79361;SDS011;68830;47.566;19.012;2023-08-06T01:34:52;11.65;;;9.88;;
79361;SDS011;68830;47.566;19.012;2023-08-06T01:37:58;16.08;;;11.75;;
79361;SDS011;68830;47.566;19.012;2023-08-06T01:44:03;16.42;;;13.75;;
79361;SDS011;68830;47.566;19.012;2023-08-06T01:47:06;17.15;;;12.55;;
79361;SDS011;68830;47.566;19.012;2023-08-06T01:50:08;12.88;;;10.93;;
79361;SDS011;68830;47.566;19.012;2023-08-06T01:53:12;14.20;;;12.15;;
79361;SDS011;68830;47.566;19.012;2023-08-06T01:56:13;18.90;;;11.63;;
79361;SDS011;68830;47.566;19.012;2023-08-06T01:59:16;12.77;;;10.60;;
79361;SDS011;68830;47.566;19.012;2023-08-06T02:02:18;13.13;;;9.88;;
79361;SDS011;68830;47.566;19.012;2023-08-06T02:05:21;9.48;;;8.57;;
79361;SDS011;68830;47.566;19.012;2023-08-06T02:08:24;10.98;;;9.00;;
79361;SDS011;68830;47.566;19.012;2023-08-06T02:11:26;12.57;;;8.95;;
79361;SDS011;68830;47.566;19.012;2023-08-06T02:14:28;7.85;;;7.05;;
79361;SDS011;68830;47.566;19.012;2023-08-06T02:17:30;8.50;;;7.70;;
79361;SDS011;68830;47.566;19.012;2023-08-06T02:20:32;7.88;;;6.63;;
79361;SDS011;68830;47.566;19.012;2023-08-06T02:23:35;9.27;;;5.95;;
79361;SDS011;68830;47.566;19.012;2023-08-06T02:26:38;10.02;;;8.30;;
79361;SDS011;68830;47.566;19.012;2023-08-06T02:29:40;9.95;;;9.05;;
79361;SDS011;68830;47.566;19.012;2023-08-06T02:32:42;9.57;;;8.60;;
79361;SDS011;68830;47.566;19.012;2023-08-06T02:35:45;11.60;;;9.55;;
79361;SDS011;68830;47.566;19.012;2023-08-06T02:38:48;12.05;;;9.02;;
79361;SDS011;68830;47.566;19.012;2023-08-06T02:41:51;11.60;;;9.65;;
79361;SDS011;68830;47.566;19.012;2023-08-06T02:44:54;11.65;;;10.15;;
79361;SDS011;68830;47.566;19.012;2023-08-06T02:47:58;10.23;;;8.60;;
79361;SDS011;68830;47.566;19.012;2023-08-06T02:51:01;13.95;;;9.30;;
79361;SDS011;68830;47.566;19.012;2023-08-06T02:54:04;12.05;;;9.48;;
79361;SDS011;68830;47.566;19.012;2023-08-06T02:57:07;9.82;;;8.30;;
79361;SDS011;68830;47.566;19.012;2023-08-06T03:00:09;12.20;;;9.38;;
79361;SDS011;68830;47.566;19.012;2023-08-06T03:03:13;10.32;;;9.30;;
79361;SDS011;68830;47.566;19.012;2023-08-06T03:06:15;10.98;;;8.70;;
79361;SDS011;68830;47.566;19.012;2023-08-06T03:09:18;13.07;;;8.82;;
79361;SDS011;68830;47.566;19.012;2023-08-06T03:12:21;12.43;;;8.02;;
79361;SDS011;68830;47.566;19.012;2023-08-06T03:15:23;14.05;;;8.43;;
79361;SDS011;68830;47.566;19.012;2023-08-06T03:18:25;11.27;;;9.32;;
79361;SDS011;68830;47.566;19.012;2023-08-06T03:21:27;8.65;;;7.72;;
79361;SDS011;68830;47.566;19.012;2023-08-06T03:24:31;8.40;;;7.32;;
79361;SDS011;68830;47.566;19.012;2023-08-06T03:27:33;16.20;;;8.10;;
79361;SDS011;68830;47.566;19.012;2023-08-06T03:30:35;8.40;;;6.32;;
79361;SDS011;68830;47.566;19.012;2023-08-06T03:33:37;9.00;;;7.07;;
79361;SDS011;68830;47.566;19.012;2023-08-06T03:36:39;9.13;;;7.65;;
79361;SDS011;68830;47.566;19.012;2023-08-06T03:39:42;10.63;;;7.18;;
79361;SDS011;68830;47.566;19.012;2023-08-06T03:42:45;8.07;;;6.45;;
79361;SDS011;68830;47.566;19.012;2023-08-06T03:45:47;9.25;;;5.47;;
79361;SDS011;68830;47.566;19.012;2023-08-06T03:48:49;6.25;;;5.63;;
79361;SDS011;68830;47.566;19.012;2023-08-06T03:51:51;6.28;;;5.43;;
79361;SDS011;68830;47.566;19.012;2023-08-06T03:54:55;6.40;;;5.70;;
79361;SDS011;68830;47.566;19.012;2023-08-06T03:57:57;7.65;;;5.82;;
79361;SDS011;68830;47.566;19.012;2023-08-06T04:01:00;6.40;;;5.70;;
79361;SDS011;68830;47.566;19.012;2023-08-06T04:04:04;7.38;;;6.32;;
79361;SDS011;68830;47.566;19.012;2023-08-06T04:07:05;9.77;;;7.30;;
79361;SDS011;68830;47.566;19.012;2023-08-06T04:10:09;10.30;;;8.65;;
79361;SDS011;68830;47.566;19.012;2023-08-06T04:13:11;11.23;;;8.73;;
79361;SDS011;68830;47.566;19.012;2023-08-06T04:16:14;8.68;;;7.82;;
79361;SDS011;68830;47.566;19.012;2023-08-06T04:19:16;10.07;;;7.78;;
79361;SDS011;68830;47.566;19.012;2023-08-06T04:22:19;8.60;;;6.70;;
79361;SDS011;68830;47.566;19.012;2023-08-06T04:25:23;5.80;;;4.60;;
79361;SDS011;68830;47.566;19.012;2023-08-06T04:28:26;4.20;;;3.22;;
79361;SDS011;68830;47.566;19.012;2023-08-06T04:31:28;2.60;;;2.30;;
79361;SDS011;68830;47.566;19.012;2023-08-06T04:34:31;2.92;;;1.85;;
79361;SDS011;68830;47.566;19.012;2023-08-06T04:37:33;3.53;;;2.50;;
79361;SDS011;68830;47.566;19.012;2023-08-06T04:40:36;2.45;;;2.03;;
79361;SDS011;68830;47.566;19.012;2023-08-06T04:43:39;2.10;;;1.73;;
79361;SDS011;68830;47.566;19.012;2023-08-06T04:46:41;2.22;;;1.65;;
79361;SDS011;68830;47.566;19.012;2023-08-06T04:49:43;2.10;;;1.77;;
79361;SDS011;68830;47.566;19.012;2023-08-06T04:52:45;2.17;;;1.10;;
79361;SDS011;68830;47.566;19.012;2023-08-06T04:55:48;0.80;;;0.70;;
79361;SDS011;68830;47.566;19.012;2023-08-06T04:58:51;1.05;;;0.65;;
79361;SDS011;68830;47.566;19.012;2023-08-06T05:01:53;2.20;;;0.90;;
79361;SDS011;68830;47.566;19.012;2023-08-06T05:04:56;2.13;;;1.05;;
79361;SDS011;68830;47.566;19.012;2023-08-06T05:07:58;1.15;;;0.88;;
79361;SDS011;68830;47.566;19.012;2023-08-06T05:11:01;1.67;;;1.10;;
79361;SDS011;68830;47.566;19.012;2023-08-06T05:14:04;0.70;;;0.70;;
79361;SDS011;68830;47.566;19.012;2023-08-06T05:17:06;2.50;;;0.90;;
79361;SDS011;68830;47.566;19.012;2023-08-06T05:20:08;0.63;;;0.63;;
79361;SDS011;68830;47.566;19.012;2023-08-06T05:23:11;0.95;;;0.60;;
79361;SDS011;68830;47.566;19.012;2023-08-06T05:26:14;4.32;;;0.93;;
79361;SDS011;68830;47.566;19.012;2023-08-06T05:29:20;1.20;;;0.35;;
79361;SDS011;68830;47.566;19.012;2023-08-06T05:32:22;2.40;;;1.00;;
79361;SDS011;68830;47.566;19.012;2023-08-06T05:35:24;0.40;;;0.40;;
79361;SDS011;68830;47.566;19.012;2023-08-06T05:38:26;0.95;;;0.43;;
79361;SDS011;68830;47.566;19.012;2023-08-06T05:41:30;0.40;;;0.40;;
79361;SDS011;68830;47.566;19.012;2023-08-06T05:44:32;0.40;;;0.40;;
79361;SDS011;68830;47.566;19.012;2023-08-06T05:47:34;0.30;;;0.30;;
79361;SDS011;68830;47.566;19.012;2023-08-06T05:50:36;0.50;;;0.50;;
79361;SDS011;68830;47.566;19.012;2023-08-06T05:53:38;0.60;;;0.60;;
79361;SDS011;68830;47.566;19.012;2023-08-06T05:56:41;1.10;;;0.32;;
79361;SDS011;68830;47.566;19.012;2023-08-06T05:59:43;0.30;;;0.30;;
79361;SDS011;68830;47.566;19.012;2023-08-06T06:02:45;2.78;;;0.30;;
79361;SDS011;68830;47.566;19.012;2023-08-06T06:05:48;0.32;;;0.32;;
79361;SDS011;68830;47.566;19.012;2023-08-06T06:08:50;0.40;;;0.40;;
79361;SDS011;68830;47.566;19.012;2023-08-06T06:11:53;0.43;;;0.30;;
79361;SDS011;68830;47.566;19.012;2023-08-06T06:14:55;0.60;;;0.60;;
79361;SDS011;68830;47.566;19.012;2023-08-06T06:17:57;1.15;;;0.80;;
79361;SDS011;68830;47.566;19.012;2023-08-06T06:21:00;0.40;;;0.40;;
79361;SDS011;68830;47.566;19.012;2023-08-06T06:24:02;1.55;;;0.40;;
79361;SDS011;68830;47.566;19.012;2023-08-06T06:27:07;0.90;;;0.90;;
79361;SDS011;68830;47.566;19.012;2023-08-06T06:30:09;1.15;;;0.77;;
79361;SDS011;68830;47.566;19.012;2023-08-06T06:33:13;0.50;;;0.50;;
79361;SDS011;68830;47.566;19.012;2023-08-06T06:36:16;0.43;;;0.43;;
79361;SDS011;68830;47.566;19.012;2023-08-06T06:39:17;0.88;;;0.57;;
79361;SDS011;68830;47.566;19.012;2023-08-06T06:42:21;0.80;;;0.80;;
79361;SDS011;68830;47.566;19.012;2023-08-06T06:45:24;0.70;;;0.70;;
79361;SDS011;68830;47.566;19.012;2023-08-06T06:48:27;0.80;;;0.80;;
79361;SDS011;68830;47.566;19.012;2023-08-06T06:51:29;0.70;;;0.70;;
79361;SDS011;68830;47.566;19.012;2023-08-06T06:54:33;0.85;;;0.85;;
79361;SDS011;68830;47.566;19.012;2023-08-06T06:57:37;1.83;;;0.95;;
79361;SDS011;68830;47.566;19.012;2023-08-06T07:00:39;0.70;;;0.70;;
79361;SDS011;68830;47.566;19.012;2023-08-06T07:03:41;1.20;;;1.10;;
79361;SDS011;68830;47.566;19.012;2023-08-06T07:06:43;1.48;;;1.38;;
79361;SDS011;68830;47.566;19.012;2023-08-06T07:09:44;1.25;;;1.20;;
79361;SDS011;68830;47.566;19.012;2023-08-06T07:12:48;0.90;;;0.90;;
79361;SDS011;68830;47.566;19.012;2023-08-06T07:15:51;0.70;;;0.70;;
79361;SDS011;68830;47.566;19.012;2023-08-06T07:18:53;0.50;;;0.50;;
79361;SDS011;68830;47.566;19.012;2023-08-06T07:21:55;1.52;;;0.70;;
79361;SDS011;68830;47.566;19.012;2023-08-06T07:24:57;0.80;;;0.80;;
79361;SDS011;68830;47.566;19.012;2023-08-06T07:28:01;0.35;;;0.35;;
79361;SDS011;68830;47.566;19.012;2023-08-06T07:31:03;0.30;;;0.25;;
79361;SDS011;68830;47.566;19.012;2023-08-06T07:34:09;2.28;;;0.43;;
79361;SDS011;68830;47.566;19.012;2023-08-06T07:37:11;0.30;;;0.30;;
79361;SDS011;68830;47.566;19.012;2023-08-06T07:40:14;0.63;;;0.60;;
79361;SDS011;68830;47.566;19.012;2023-08-06T07:43:17;0.30;;;0.20;;
79361;SDS011;68830;47.566;19.012;2023-08-06T07:46:19;2.33;;;0.50;;
79361;SDS011;68830;47.566;19.012;2023-08-06T07:49:21;0.52;;;0.52;;
79361;SDS011;68830;47.566;19.012;2023-08-06T07:52:23;0.22;;;0.22;;
79361;SDS011;68830;47.566;19.012;2023-08-06T07:55:25;1.10;;;0.40;;
79361;SDS011;68830;47.566;19.012;2023-08-06T07:58:29;0.22;;;0.20;;
79361;SDS011;68830;47.566;19.012;2023-08-06T08:01:31;2.45;;;0.40;;
79361;SDS011;68830;47.566;19.012;2023-08-06T08:04:33;5.05;;;0.68;;
79361;SDS011;68830;47.566;19.012;2023-08-06T08:07:35;0.98;;;0.40;;
79361;SDS011;68830;47.566;19.012;2023-08-06T08:10:37;0.30;;;0.30;;
79361;SDS011;68830;47.566;19.012;2023-08-06T08:13:41;2.05;;;0.30;;
79361;SDS011;68830;47.566;19.012;2023-08-06T08:16:43;1.17;;;0.45;;
79361;SDS011;68830;47.566;19.012;2023-08-06T08:19:45;0.28;;;0.28;;
79361;SDS011;68830;47.566;19.012;2023-08-06T08:22:47;0.20;;;0.20;;
79361;SDS011;68830;47.566;19.012;2023-08-06T08:25:50;0.98;;;0.38;;
79361;SDS011;68830;47.566;19.012;2023-08-06T08:28:55;0.25;;;0.25;;
79361;SDS011;68830;47.566;19.012;2023-08-06T08:31:58;0.45;;;0.45;;
79361;SDS011;68830;47.566;19.012;2023-08-06T08:35:00;0.35;;;0.35;;
79361;SDS011;68830;47.566;19.012;2023-08-06T08:38:02;0.20;;;0.20;;
79361;SDS011;68830;47.566;19.012;2023-08-06T08:41:05;1.15;;;0.40;;
79361;SDS011;68830;47.566;19.012;2023-08-06T08:44:09;0.85;;;0.30;;
79361;SDS011;68830;47.566;19.012;2023-08-06T08:47:12;0.38;;;0.38;;
79361;SDS011;68830;47.566;19.012;2023-08-06T08:50:17;2.85;;;0.50;;
79361;SDS011;68830;47.566;19.012;2023-08-06T08:53:21;0.30;;;0.30;;
79361;SDS011;68830;47.566;19.012;2023-08-06T08:56:23;0.40;;;0.40;;
79361;SDS011;68830;47.566;19.012;2023-08-06T08:59:28;0.50;;;0.50;;
79361;SDS011;68830;47.566;19.012;2023-08-06T09:02:30;0.90;;;0.60;;
79361;SDS011;68830;47.566;19.012;2023-08-06T09:05:34;0.75;;;0.50;;
79361;SDS011;68830;47.566;19.012;2023-08-06T09:08:39;0.60;;;0.60;;
79361;SDS011;68830;47.566;19.012;2023-08-06T09:11:49;0.40;;;0.40;;
79361;SDS011;68830;47.566;19.012;2023-08-06T09:14:53;1.08;;;0.70;;
79361;SDS011;68830;47.566;19.012;2023-08-06T09:17:56;0.70;;;0.70;;
79361;SDS011;68830;47.566;19.012;2023-08-06T09:20:58;0.95;;;0.65;;
79361;SDS011;68830;47.566;19.012;2023-08-06T09:24:00;0.95;;;0.80;;
79361;SDS011;68830;47.566;19.012;2023-08-06T09:27:02;1.30;;;0.90;;
79361;SDS011;68830;47.566;19.012;2023-08-06T09:30:07;1.25;;;0.98;;
79361;SDS011;68830;47.566;19.012;2023-08-06T09:33:09;1.02;;;0.80;;
79361;SDS011;68830;47.566;19.012;2023-08-06T09:36:12;0.70;;;0.70;;
79361;SDS011;68830;47.566;19.012;2023-08-06T09:39:14;0.80;;;0.80;;
79361;SDS011;68830;47.566;19.012;2023-08-06T09:42:18;1.65;;;0.75;;
79361;SDS011;68830;47.566;19.012;2023-08-06T09:45:21;0.95;;;0.90;;
79361;SDS011;68830;47.566;19.012;2023-08-06T09:48:23;0.60;;;0.60;;
79361;SDS011;68830;47.566;19.012;2023-08-06T09:51:26;2.55;;;0.90;;
79361;SDS011;68830;47.566;19.012;2023-08-06T09:54:28;1.77;;;0.93;;
79361;SDS011;68830;47.566;19.012;2023-08-06T09:57:32;1.60;;;0.90;;
79361;SDS011;68830;47.566;19.012;2023-08-06T10:00:35;1.27;;;0.77;;
79361;SDS011;68830;47.566;19.012;2023-08-06T10:03:40;0.80;;;0.80;;
79361;SDS011;68830;47.566;19.012;2023-08-06T10:06:46;1.08;;;0.93;;
79361;SDS011;68830;47.566;19.012;2023-08-06T10:12:52;1.15;;;0.93;;
79361;SDS011;68830;47.566;19.012;2023-08-06T10:15:59;1.35;;;0.80;;
79361;SDS011;68830;47.566;19.012;2023-08-06T10:19:07;1.17;;;0.90;;
79361;SDS011;68830;47.566;19.012;2023-08-06T10:22:13;0.57;;;0.57;;
79361;SDS011;68830;47.566;19.012;2023-08-06T10:25:16;1.45;;;1.00;;
79361;SDS011;68830;47.566;19.012;2023-08-06T10:28:18;0.95;;;0.90;;
79361;SDS011;68830;47.566;19.012;2023-08-06T10:31:22;0.73;;;0.73;;
79361;SDS011;68830;47.566;19.012;2023-08-06T10:34:59;0.90;;;0.82;;
79361;SDS011;68830;47.566;19.012;2023-08-06T10:38:05;1.90;;;0.80;;
79361;SDS011;68830;47.566;19.012;2023-08-06T10:41:14;0.68;;;0.60;;
79361;SDS011;68830;47.566;19.012;2023-08-06T10:44:17;0.50;;;0.50;;
79361;SDS011;68830;47.566;19.012;2023-08-06T10:47:27;1.10;;;0.90;;
79361;SDS011;68830;47.566;19.012;2023-08-06T10:50:30;3.55;;;1.20;;
79361;SDS011;68830;47.566;19.012;2023-08-06T10:53:33;0.88;;;0.82;;
79361;SDS011;68830;47.566;19.012;2023-08-06T10:56:39;1.83;;;1.23;;
79361;SDS011;68830;47.566;19.012;2023-08-06T10:59:42;2.63;;;0.85;;
79361;SDS011;68830;47.566;19.012;2023-08-06T11:02:46;1.02;;;0.93;;
79361;SDS011;68830;47.566;19.012;2023-08-06T11:05:51;0.80;;;0.80;;
79361;SDS011;68830;47.566;19.012;2023-08-06T11:08:54;0.90;;;0.85;;
79361;SDS011;68830;47.566;19.012;2023-08-06T11:11:57;1.50;;;1.05;;
79361;SDS011;68830;47.566;19.012;2023-08-06T11:14:59;0.85;;;0.80;;
79361;SDS011;68830;47.566;19.012;2023-08-06T11:18:03;1.00;;;0.90;;
79361;SDS011;68830;47.566;19.012;2023-08-06T11:21:05;3.38;;;0.98;;
79361;SDS011;68830;47.566;19.012;2023-08-06T11:24:09;2.38;;;1.30;;
79361;SDS011;68830;47.566;19.012;2023-08-06T11:27:12;0.80;;;0.80;;
79361;SDS011;68830;47.566;19.012;2023-08-06T11:30:15;1.27;;;1.10;;
79361;SDS011;68830;47.566;19.012;2023-08-06T11:33:21;1.27;;;1.00;;
79361;SDS011;68830;47.566;19.012;2023-08-06T11:36:30;1.30;;;1.20;;
79361;SDS011;68830;47.566;19.012;2023-08-06T11:39:32;1.45;;;1.17;;
79361;SDS011;68830;47.566;19.012;2023-08-06T11:42:35;3.42;;;1.58;;
79361;SDS011;68830;47.566;19.012;2023-08-06T11:45:37;1.63;;;1.25;;
79361;SDS011;68830;47.566;19.012;2023-08-06T11:48:51;1.15;;;1.05;;
79361;SDS011;68830;47.566;19.012;2023-08-06T11:51:54;1.20;;;1.10;;
79361;SDS011;68830;47.566;19.012;2023-08-06T11:54:59;1.05;;;1.05;;
79361;SDS011;68830;47.566;19.012;2023-08-06T11:58:05;1.77;;;1.20;;
79361;SDS011;68830;47.566;19.012;2023-08-06T12:01:07;3.15;;;1.23;;
79361;SDS011;68830;47.566;19.012;2023-08-06T12:04:10;2.05;;;1.10;;
79361;SDS011;68830;47.566;19.012;2023-08-06T12:07:12;1.65;;;1.25;;
79361;SDS011;68830;47.566;19.012;2023-08-06T12:10:14;2.08;;;1.10;;
79361;SDS011;68830;47.566;19.012;2023-08-06T12:13:18;1.55;;;1.20;;
79361;SDS011;68830;47.566;19.012;2023-08-06T12:16:20;1.98;;;1.48;;
79361;SDS011;68830;47.566;19.012;2023-08-06T12:19:25;5.28;;;1.45;;
79361;SDS011;68830;47.566;19.012;2023-08-06T12:22:27;2.17;;;1.60;;
79361;SDS011;68830;47.566;19.012;2023-08-06T12:25:39;1.88;;;1.40;;
79361;SDS011;68830;47.566;19.012;2023-08-06T12:28:42;2.00;;;1.27;;
79361;SDS011;68830;47.566;19.012;2023-08-06T12:31:44;1.55;;;1.20;;
79361;SDS011;68830;47.566;19.012;2023-08-06T12:34:47;2.47;;;1.60;;
79361;SDS011;68830;47.566;19.012;2023-08-06T12:37:53;2.53;;;1.70;;
79361;SDS011;68830;47.566;19.012;2023-08-06T12:40:56;2.50;;;1.92;;
79361;SDS011;68830;47.566;19.012;2023-08-06T12:43:58;2.00;;;1.80;;
79361;SDS011;68830;47.566;19.012;2023-08-06T12:47:00;2.20;;;1.70;;
79361;SDS011;68830;47.566;19.012;2023-08-06T12:50:03;1.75;;;1.63;;
79361;SDS011;68830;47.566;19.012;2023-08-06T12:53:09;1.70;;;1.55;;
79361;SDS011;68830;47.566;19.012;2023-08-06T12:56:12;2.90;;;1.83;;
79361;SDS011;68830;47.566;19.012;2023-08-06T12:59:14;3.83;;;2.10;;
79361;SDS011;68830;47.566;19.012;2023-08-06T13:02:17;3.47;;;1.92;;
79361;SDS011;68830;47.566;19.012;2023-08-06T13:05:22;3.17;;;1.65;;
79361;SDS011;68830;47.566;19.012;2023-08-06T13:08:25;2.22;;;2.00;;
79361;SDS011;68830;47.566;19.012;2023-08-06T13:11:29;15.10;;;3.50;;
79361;SDS011;68830;47.566;19.012;2023-08-06T13:14:32;2.00;;;1.80;;
79361;SDS011;68830;47.566;19.012;2023-08-06T13:17:35;4.97;;;2.15;;
79361;SDS011;68830;47.566;19.012;2023-08-06T13:20:39;2.92;;;2.00;;
79361;SDS011;68830;47.566;19.012;2023-08-06T13:23:43;2.45;;;2.00;;
79361;SDS011;68830;47.566;19.012;2023-08-06T13:26:45;2.28;;;2.00;;
79361;SDS011;68830;47.566;19.012;2023-08-06T13:29:48;2.63;;;2.25;;
79361;SDS011;68830;47.566;19.012;2023-08-06T13:32:51;3.03;;;2.20;;
79361;SDS011;68830;47.566;19.012;2023-08-06T13:35:54;2.50;;;2.10;;
79361;SDS011;68830;47.566;19.012;2023-08-06T13:38:56;2.63;;;2.40;;
79361;SDS011;68830;47.566;19.012;2023-08-06T13:42:00;2.38;;;2.10;;
79361;SDS011;68830;47.566;19.012;2023-08-06T13:45:02;3.92;;;2.55;;
79361;SDS011;68830;47.566;19.012;2023-08-06T13:48:05;3.40;;;2.90;;
79361;SDS011;68830;47.566;19.012;2023-08-06T13:51:10;4.25;;;2.58;;
79361;SDS011;68830;47.566;19.012;2023-08-06T13:54:13;3.30;;;3.00;;
79361;SDS011;68830;47.566;19.012;2023-08-06T13:57:15;4.18;;;3.17;;
79361;SDS011;68830;47.566;19.012;2023-08-06T14:00:19;4.85;;;3.40;;
79361;SDS011;68830;47.566;19.012;2023-08-06T14:03:22;3.60;;;3.30;;
79361;SDS011;68830;47.566;19.012;2023-08-06T14:06:26;4.68;;;3.47;;
79361;SDS011;68830;47.566;19.012;2023-08-06T14:12:31;3.40;;;3.10;;
79361;SDS011;68830;47.566;19.012;2023-08-06T14:15:34;4.60;;;3.13;;
79361;SDS011;68830;47.566;19.012;2023-08-06T14:18:37;3.00;;;2.75;;
79361;SDS011;68830;47.566;19.012;2023-08-06T14:21:41;2.70;;;2.50;;
79361;SDS011;68830;47.566;19.012;2023-08-06T14:24:44;3.20;;;2.28;;
79361;SDS011;68830;47.566;19.012;2023-08-06T14:27:45;2.90;;;2.20;;
79361;SDS011;68830;47.566;19.012;2023-08-06T14:30:49;3.92;;;2.42;;
79361;SDS011;68830;47.566;19.012;2023-08-06T14:33:52;2.60;;;2.38;;
79361;SDS011;68830;47.566;19.012;2023-08-06T14:36:56;4.97;;;2.95;;
79361;SDS011;68830;47.566;19.012;2023-08-06T14:40:00;3.40;;;2.88;;
79361;SDS011;68830;47.566;19.012;2023-08-06T14:43:04;6.95;;;2.90;;
79361;SDS011;68830;47.566;19.012;2023-08-06T14:46:07;3.22;;;2.83;;
79361;SDS011;68830;47.566;19.012;2023-08-06T14:49:11;2.85;;;2.65;;
79361;SDS011;68830;47.566;19.012;2023-08-06T14:52:17;3.10;;;2.80;;
79361;SDS011;68830;47.566;19.012;2023-08-06T14:55:24;3.40;;;3.05;;
79361;SDS011;68830;47.566;19.012;2023-08-06T14:58:27;2.80;;;2.60;;
79361;SDS011;68830;47.566;19.012;2023-08-06T15:01:29;2.50;;;2.30;;
79361;SDS011;68830;47.566;19.012;2023-08-06T15:04:32;3.53;;;2.60;;
79361;SDS011;68830;47.566;19.012;2023-08-06T15:07:38;3.17;;;2.33;;
79361;SDS011;68830;47.566;19.012;2023-08-06T15:10:41;3.70;;;2.58;;
79361;SDS011;68830;47.566;19.012;2023-08-06T15:13:43;2.60;;;2.38;;
79361;SDS011;68830;47.566;19.012;2023-08-06T15:16:46;2.63;;;2.22;;
79361;SDS011;68830;47.566;19.012;2023-08-06T15:19:48;3.30;;;3.00;;
79361;SDS011;68830;47.566;19.012;2023-08-06T15:22:52;2.50;;;2.30;;
79361;SDS011;68830;47.566;19.012;2023-08-06T15:25:55;3.60;;;2.92;;
79361;SDS011;68830;47.566;19.012;2023-08-06T15:28:58;2.72;;;2.53;;
79361;SDS011;68830;47.566;19.012;2023-08-06T15:32:00;2.67;;;2.47;;
79361;SDS011;68830;47.566;19.012;2023-08-06T15:35:02;2.75;;;2.55;;
79361;SDS011;68830;47.566;19.012;2023-08-06T15:38:09;2.42;;;2.22;;
79361;SDS011;68830;47.566;19.012;2023-08-06T15:41:12;2.75;;;2.45;;
79361;SDS011;68830;47.566;19.012;2023-08-06T15:44:15;2.80;;;2.55;;
79361;SDS011;68830;47.566;19.012;2023-08-06T15:47:18;4.32;;;3.40;;
79361;SDS011;68830;47.566;19.012;2023-08-06T15:50:22;3.42;;;2.63;;
79361;SDS011;68830;47.566;19.012;2023-08-06T15:53:26;4.68;;;2.70;;
79361;SDS011;68830;47.566;19.012;2023-08-06T15:56:30;3.03;;;2.33;;
79361;SDS011;68830;47.566;19.012;2023-08-06T15:59:33;2.83;;;2.50;;
79361;SDS011;68830;47.566;19.012;2023-08-06T16:02:35;3.05;;;2.50;;
79361;SDS011;68830;47.566;19.012;2023-08-06T16:05:38;2.85;;;2.60;;
79361;SDS011;68830;47.566;19.012;2023-08-06T16:08:42;3.47;;;2.83;;
79361;SDS011;68830;47.566;19.012;2023-08-06T16:11:45;2.40;;;2.20;;
79361;SDS011;68830;47.566;19.012;2023-08-06T16:14:47;3.15;;;2.40;;
79361;SDS011;68830;47.566;19.012;2023-08-06T16:17:51;3.25;;;2.70;;
79361;SDS011;68830;47.566;19.012;2023-08-06T16:20:53;3.50;;;2.30;;
79361;SDS011;68830;47.566;19.012;2023-08-06T16:23:57;3.05;;;2.40;;
79361;SDS011;68830;47.566;19.012;2023-08-06T16:26:59;2.22;;;2.03;;
79361;SDS011;68830;47.566;19.012;2023-08-06T16:30:02;3.33;;;2.45;;
79361;SDS011;68830;47.566;19.012;2023-08-06T16:33:06;3.15;;;2.58;;
79361;SDS011;68830;47.566;19.012;2023-08-06T16:36:08;2.80;;;2.55;;
79361;SDS011;68830;47.566;19.012;2023-08-06T16:39:12;2.72;;;2.47;;
79361;SDS011;68830;47.566;19.012;2023-08-06T16:42:16;2.40;;;2.20;;
79361;SDS011;68830;47.566;19.012;2023-08-06T16:45:18;2.20;;;2.00;;
79361;SDS011;68830;47.566;19.012;2023-08-06T16:48:21;3.00;;;2.70;;
79361;SDS011;68830;47.566;19.012;2023-08-06T16:51:31;3.30;;;2.47;;
79361;SDS011;68830;47.566;19.012;2023-08-06T16:54:36;2.85;;;2.63;;
79361;SDS011;68830;47.566;19.012;2023-08-06T16:57:38;3.15;;;2.67;;
79361;SDS011;68830;47.566;19.012;2023-08-06T17:00:40;2.88;;;2.58;;
79361;SDS011;68830;47.566;19.012;2023-08-06T17:03:46;2.45;;;2.25;;
79361;SDS011;68830;47.566;19.012;2023-08-06T17:06:50;3.30;;;2.83;;
79361;SDS011;68830;47.566;19.012;2023-08-06T17:09:55;2.33;;;2.13;;
79361;SDS011;68830;47.566;19.012;2023-08-06T17:12:57;3.03;;;2.40;;
79361;SDS011;68830;47.566;19.012;2023-08-06T17:16:18;2.45;;;2.25;;
79361;SDS011;68830;47.566;19.012;2023-08-06T17:19:21;2.50;;;2.22;;
79361;SDS011;68830;47.566;19.012;2023-08-06T17:22:24;2.60;;;2.40;;
79361;SDS011;68830;47.566;19.012;2023-08-06T17:25:29;2.83;;;2.63;;
79361;SDS011;68830;47.566;19.012;2023-08-06T17:28:33;2.92;;;2.28;;
79361;SDS011;68830;47.566;19.012;2023-08-06T17:31:36;3.03;;;2.20;;
79361;SDS011;68830;47.566;19.012;2023-08-06T17:34:38;2.85;;;2.55;;
79361;SDS011;68830;47.566;19.012;2023-08-06T17:37:41;3.00;;;2.70;;
79361;SDS011;68830;47.566;19.012;2023-08-06T17:40:45;4.55;;;2.90;;
79361;SDS011;68830;47.566;19.012;2023-08-06T17:43:48;2.67;;;2.47;;
79361;SDS011;68830;47.566;19.012;2023-08-06T17:46:50;3.60;;;2.10;;
79361;SDS011;68830;47.566;19.012;2023-08-06T17:49:53;3.30;;;2.72;;
79361;SDS011;68830;47.566;19.012;2023-08-06T17:52:56;3.60;;;2.80;;
79361;SDS011;68830;47.566;19.012;2023-08-06T17:56:01;3.08;;;2.30;;
79361;SDS011;68830;47.566;19.012;2023-08-06T17:59:04;2.83;;;2.58;;
79361;SDS011;68830;47.566;19.012;2023-08-06T18:02:07;3.35;;;2.90;;
79361;SDS011;68830;47.566;19.012;2023-08-06T18:05:10;3.42;;;3.13;;
79361;SDS011;68830;47.566;19.012;2023-08-06T18:08:17;2.92;;;2.40;;
79361;SDS011;68830;47.566;19.012;2023-08-06T18:11:21;5.07;;;2.47;;
79361;SDS011;68830;47.566;19.012;2023-08-06T18:14:23;2.95;;;2.70;;